sensor_id;sensor_type;location;lat;lon;timestamp;pressure;altitude;pressure_sealevel;temperature;humidity
75594;BME280;64176;49.156;7.810;2023-02-01T00:00:12;99912.09;;;4.03;92.67
75594;BME280;64176;49.156;7.810;2023-02-01T00:03:00;99909.53;;;4.03;92.95
75594;BME280;64176;49.156;7.810;2023-02-01T00:05:44;99903.69;;;4.06;92.48
75594;BME280;64176;49.156;7.810;2023-02-01T00:08:28;99896.88;;;4.06;92.17
75594;BME280;64176;49.156;7.810;2023-02-01T00:11:13;99896.13;;;4.09;91.92
75594;BME280;64176;49.156;7.810;2023-02-01T00:13:57;99896.25;;;4.12;91.89
75594;BME280;64176;49.156;7.810;2023-02-01T00:16:41;99892.00;;;4.12;92.12
75594;BME280;64176;49.156;7.810;2023-02-01T00:19:25;99889.50;;;4.14;91.72
75594;BME280;64176;49.156;7.810;2023-02-01T00:22:09;99905.72;;;4.14;91.83
75594;BME280;64176;49.156;7.810;2023-02-01T00:24:56;99898.06;;;4.14;91.32
75594;BME280;64176;49.156;7.810;2023-02-01T00:27:42;99869.28;;;3.99;91.88
75594;BME280;64176;49.156;7.810;2023-02-01T00:30:26;99882.78;;;4.16;91.60
75594;BME280;64176;49.156;7.810;2023-02-01T00:33:10;99873.28;;;4.13;91.73
75594;BME280;64176;49.156;7.810;2023-02-01T00:36:02;99866.50;;;4.14;91.60
75594;BME280;64176;49.156;7.810;2023-02-01T00:38:47;99877.66;;;4.16;92.11
75594;BME280;64176;49.156;7.810;2023-02-01T00:41:31;99868.25;;;4.15;92.21
75594;BME280;64176;49.156;7.810;2023-02-01T00:44:15;99864.66;;;4.11;91.87
75594;BME280;64176;49.156;7.810;2023-02-01T00:46:59;99860.38;;;4.10;92.20
75594;BME280;64176;49.156;7.810;2023-02-01T00:49:44;99863.94;;;4.14;91.79
75594;BME280;64176;49.156;7.810;2023-02-01T00:52:31;99863.94;;;4.14;92.11
75594;BME280;64176;49.156;7.810;2023-02-01T00:55:14;99858.81;;;4.14;92.04
75594;BME280;64176;49.156;7.810;2023-02-01T00:57:58;99859.63;;;4.13;92.01
75594;BME280;64176;49.156;7.810;2023-02-01T01:00:42;99863.06;;;4.13;92.08
75594;BME280;64176;49.156;7.810;2023-02-01T01:03:26;99858.00;;;4.15;91.70
75594;BME280;64176;49.156;7.810;2023-02-01T01:06:12;99858.94;;;4.17;91.24
75594;BME280;64176;49.156;7.810;2023-02-01T01:09:00;99863.25;;;4.18;91.57
75594;BME280;64176;49.156;7.810;2023-02-01T01:11:45;99855.59;;;4.18;91.90
75594;BME280;64176;49.156;7.810;2023-02-01T01:14:30;99852.88;;;4.15;91.35
75594;BME280;64176;49.156;7.810;2023-02-01T01:17:13;99836.59;;;4.13;91.56
75594;BME280;64176;49.156;7.810;2023-02-01T01:20:00;99836.75;;;4.16;91.62
75594;BME280;64176;49.156;7.810;2023-02-01T01:22:47;99830.97;;;4.21;90.82
75594;BME280;64176;49.156;7.810;2023-02-01T01:25:32;99837.91;;;4.24;90.52
75594;BME280;64176;49.156;7.810;2023-02-01T01:28:16;99836.28;;;4.26;90.43
75594;BME280;64176;49.156;7.810;2023-02-01T01:31:00;99824.38;;;4.26;90.73
75594;BME280;64176;49.156;7.810;2023-02-01T01:33:46;99819.06;;;4.22;90.72
75594;BME280;64176;49.156;7.810;2023-02-01T01:36:31;99829.44;;;4.25;90.47
75594;BME280;64176;49.156;7.810;2023-02-01T01:39:15;99828.56;;;4.24;90.49
75594;BME280;64176;49.156;7.810;2023-02-01T01:41:59;99827.50;;;4.19;90.91
75594;BME280;64176;49.156;7.810;2023-02-01T01:45:04;99827.31;;;4.15;90.88
75594;BME280;64176;49.156;7.810;2023-02-01T01:47:56;99825.84;;;4.21;90.91
75594;BME280;64176;49.156;7.810;2023-02-01T01:50:50;99822.41;;;4.19;91.00
75594;BME280;64176;49.156;7.810;2023-02-01T01:53:41;99830.22;;;4.24;90.90
75594;BME280;64176;49.156;7.810;2023-02-01T01:56:28;99843.91;;;4.24;91.49
75594;BME280;64176;49.156;7.810;2023-02-01T01:59:14;99832.56;;;4.18;91.53
75594;BME280;64176;49.156;7.810;2023-02-01T02:01:58;99827.50;;;4.19;91.70
75594;BME280;64176;49.156;7.810;2023-02-01T02:04:44;99828.25;;;4.17;91.36
75594;BME280;64176;49.156;7.810;2023-02-01T02:07:34;99835.13;;;4.18;91.97
75594;BME280;64176;49.156;7.810;2023-02-01T02:10:20;99830.91;;;4.20;91.68
75594;BME280;64176;49.156;7.810;2023-02-01T02:13:07;99833.47;;;4.20;91.41
75594;BME280;64176;49.156;7.810;2023-02-01T02:16:02;99830.09;;;4.21;91.55
75594;BME280;64176;49.156;7.810;2023-02-01T02:37:30;99834.66;;;4.28;91.26
75594;BME280;64176;49.156;7.810;2023-02-01T02:40:31;99837.09;;;4.25;91.06
75594;BME280;64176;49.156;7.810;2023-02-01T02:43:23;99830.38;;;4.27;91.41
75594;BME280;64176;49.156;7.810;2023-02-01T02:46:38;99817.44;;;4.24;91.58
75594;BME280;64176;49.156;7.810;2023-02-01T02:49:52;99819.84;;;4.19;91.51
75594;BME280;64176;49.156;7.810;2023-02-01T02:53:23;99814.72;;;4.19;91.58
75594;BME280;64176;49.156;7.810;2023-02-01T02:56:25;99812.31;;;4.24;91.94
75594;BME280;64176;49.156;7.810;2023-02-01T02:59:30;99798.50;;;4.19;91.44
75594;BME280;64176;49.156;7.810;2023-02-01T03:02:33;99809.75;;;4.24;91.88
75594;BME280;64176;49.156;7.810;2023-02-01T03:05:41;99792.31;;;4.14;91.81
75594;BME280;64176;49.156;7.810;2023-02-01T03:08:29;99793.53;;;4.23;91.84
75594;BME280;64176;49.156;7.810;2023-02-01T03:11:15;99776.28;;;4.18;92.05
75594;BME280;64176;49.156;7.810;2023-02-01T03:14:02;99763.19;;;4.10;91.90
75594;BME280;64176;49.156;7.810;2023-02-01T03:16:55;99779.81;;;4.21;91.43
75594;BME280;64176;49.156;7.810;2023-02-01T03:19:50;99773.66;;;4.16;91.38
75594;BME280;64176;49.156;7.810;2023-02-01T03:22:37;99786.63;;;4.21;91.51
75594;BME280;64176;49.156;7.810;2023-02-01T03:25:26;99786.75;;;4.24;91.83
75594;BME280;64176;49.156;7.810;2023-02-01T03:28:11;99782.38;;;4.21;92.26
75594;BME280;64176;49.156;7.810;2023-02-01T03:30:56;99784.03;;;4.19;91.62
75594;BME280;64176;49.156;7.810;2023-02-01T03:33:41;99768.69;;;4.19;92.01
75594;BME280;64176;49.156;7.810;2023-02-01T03:36:38;99769.44;;;4.17;92.23
75594;BME280;64176;49.156;7.810;2023-02-01T03:42:17;99771.16;;;4.18;91.75
75594;BME280;64176;49.156;7.810;2023-02-01T03:47:57;99773.38;;;4.09;91.69
75594;BME280;64176;49.156;7.810;2023-02-01T03:50:49;99784.03;;;4.19;92.18
75594;BME280;64176;49.156;7.810;2023-02-01T03:53:36;99794.28;;;4.21;92.51
75594;BME280;64176;49.156;7.810;2023-02-01T03:56:27;99792.38;;;4.15;92.53
75594;BME280;64176;49.156;7.810;2023-02-01T03:59:14;99804.28;;;4.15;92.86
75594;BME280;64176;49.156;7.810;2023-02-01T04:01:59;99810.44;;;4.20;92.41
75594;BME280;64176;49.156;7.810;2023-02-01T04:04:43;99801.94;;;4.19;92.63
75594;BME280;64176;49.156;7.810;2023-02-01T04:07:31;99807.78;;;4.17;92.74
75594;BME280;64176;49.156;7.810;2023-02-01T04:10:15;99820.44;;;4.14;92.56
75594;BME280;64176;49.156;7.810;2023-02-01T04:13:00;99814.47;;;4.13;92.79
75594;BME280;64176;49.156;7.810;2023-02-01T04:15:43;99811.16;;;4.16;92.82
75594;BME280;64176;49.156;7.810;2023-02-01T04:18:29;99805.97;;;4.14;92.81
75594;BME280;64176;49.156;7.810;2023-02-01T04:21:13;99799.94;;;4.12;92.75
75594;BME280;64176;49.156;7.810;2023-02-01T04:23:57;99799.31;;;4.18;92.36
75594;BME280;64176;49.156;7.810;2023-02-01T04:26:41;99785.50;;;4.14;92.36
75594;BME280;64176;49.156;7.810;2023-02-01T04:29:26;99793.53;;;4.23;92.22
75594;BME280;64176;49.156;7.810;2023-02-01T04:32:10;99791.00;;;4.23;92.33
75594;BME280;64176;49.156;7.810;2023-02-01T04:34:55;99795.16;;;4.21;92.63
75594;BME280;64176;49.156;7.810;2023-02-01T04:37:39;99802.84;;;4.21;92.35
75594;BME280;64176;49.156;7.810;2023-02-01T04:40:23;99804.66;;;4.24;92.49
75594;BME280;64176;49.156;7.810;2023-02-01T04:43:07;99803.66;;;4.20;92.91
75594;BME280;64176;49.156;7.810;2023-02-01T04:45:52;99807.28;;;4.25;91.80
75594;BME280;64176;49.156;7.810;2023-02-01T04:48:36;99799.66;;;4.27;92.26
75594;BME280;64176;49.156;7.810;2023-02-01T04:51:22;99801.50;;;4.31;92.18
75594;BME280;64176;49.156;7.810;2023-02-01T04:54:07;99798.91;;;4.29;92.06
75594;BME280;64176;49.156;7.810;2023-02-01T04:56:51;99800.53;;;4.27;92.30
75594;BME280;64176;49.156;7.810;2023-02-01T04:59:35;99792.94;;;4.29;92.19
75594;BME280;64176;49.156;7.810;2023-02-01T05:02:19;99799.94;;;4.34;91.70
75594;BME280;64176;49.156;7.810;2023-02-01T05:05:03;99774.59;;;4.18;91.98
75594;BME280;64176;49.156;7.810;2023-02-01T05:07:47;99803.66;;;4.43;91.14
75594;BME280;64176;49.156;7.810;2023-02-01T05:10:31;99806.06;;;4.38;91.72
75594;BME280;64176;49.156;7.810;2023-02-01T05:13:15;99801.97;;;4.43;91.20
75594;BME280;64176;49.156;7.810;2023-02-01T05:16:18;99798.41;;;4.38;92.07
75594;BME280;64176;49.156;7.810;2023-02-01T05:19:02;99794.16;;;4.38;92.10
75594;BME280;64176;49.156;7.810;2023-02-01T05:21:49;99806.13;;;4.39;92.20
75594;BME280;64176;49.156;7.810;2023-02-01T05:24:33;99805.19;;;4.37;92.15
75594;BME280;64176;49.156;7.810;2023-02-01T05:27:17;99810.47;;;4.42;91.94
75594;BME280;64176;49.156;7.810;2023-02-01T05:30:03;99795.91;;;4.39;91.76
75594;BME280;64176;49.156;7.810;2023-02-01T05:32:52;99803.56;;;4.39;92.07
75594;BME280;64176;49.156;7.810;2023-02-01T05:35:36;99804.50;;;4.42;91.71
75594;BME280;64176;49.156;7.810;2023-02-01T05:38:20;99801.94;;;4.42;91.71
75594;BME280;64176;49.156;7.810;2023-02-01T05:41:04;99791.66;;;4.40;92.30
75594;BME280;64176;49.156;7.810;2023-02-01T05:43:48;99782.16;;;4.37;92.68
75594;BME280;64176;49.156;7.810;2023-02-01T05:46:35;99801.63;;;4.34;92.88
75594;BME280;64176;49.156;7.810;2023-02-01T05:49:19;99794.03;;;4.35;92.73
75594;BME280;64176;49.156;7.810;2023-02-01T05:52:03;99794.22;;;4.40;92.20
75594;BME280;64176;49.156;7.810;2023-02-01T05:54:49;99777.97;;;4.39;91.66
75594;BME280;64176;49.156;7.810;2023-02-01T05:57:33;99788.44;;;4.46;91.93
75594;BME280;64176;49.156;7.810;2023-02-01T06:00:17;99796.19;;;4.47;91.35
75594;BME280;64176;49.156;7.810;2023-02-01T06:03:02;99792.81;;;4.48;91.18
75594;BME280;64176;49.156;7.810;2023-02-01T06:05:47;99787.63;;;4.47;91.67
75594;BME280;64176;49.156;7.810;2023-02-01T06:08:32;99787.88;;;4.53;91.09
75594;BME280;64176;49.156;7.810;2023-02-01T06:11:16;99786.28;;;4.56;90.75
75594;BME280;64176;49.156;7.810;2023-02-01T06:14:00;99793.75;;;4.50;90.77
75594;BME280;64176;49.156;7.810;2023-02-01T06:16:44;99804.19;;;4.56;90.50
75594;BME280;64176;49.156;7.810;2023-02-01T06:19:32;99805.94;;;4.57;90.26
75594;BME280;64176;49.156;7.810;2023-02-01T06:22:16;99798.00;;;4.50;90.61
75594;BME280;64176;49.156;7.810;2023-02-01T06:25:02;99801.44;;;4.50;90.93
75594;BME280;64176;49.156;7.810;2023-02-01T06:27:47;99804.03;;;4.52;90.95
75594;BME280;64176;49.156;7.810;2023-02-01T06:30:32;99789.44;;;4.49;90.53
75594;BME280;64176;49.156;7.810;2023-02-01T06:33:16;99805.78;;;4.53;90.23
75594;BME280;64176;49.156;7.810;2023-02-01T06:36:05;99788.38;;;4.44;90.85
75594;BME280;64176;49.156;7.810;2023-02-01T06:38:50;99795.25;;;4.45;91.16
75594;BME280;64176;49.156;7.810;2023-02-01T06:41:34;99805.59;;;4.48;90.08
75594;BME280;64176;49.156;7.810;2023-02-01T06:44:20;99807.34;;;4.49;90.57
75594;BME280;64176;49.156;7.810;2023-02-01T06:47:04;99806.47;;;4.49;89.66
75594;BME280;64176;49.156;7.810;2023-02-01T06:49:48;99813.97;;;4.44;89.34
75594;BME280;64176;49.156;7.810;2023-02-01T06:52:32;99803.66;;;4.43;89.27
75594;BME280;64176;49.156;7.810;2023-02-01T06:55:18;99817.06;;;4.35;89.78
75594;BME280;64176;49.156;7.810;2023-02-01T06:58:03;99806.13;;;4.39;89.85
75594;BME280;64176;49.156;7.810;2023-02-01T07:00:47;99813.75;;;4.38;89.94
75594;BME280;64176;49.156;7.810;2023-02-01T07:03:31;99806.63;;;4.31;89.92
75594;BME280;64176;49.156;7.810;2023-02-01T07:06:17;99812.59;;;4.30;90.29
75594;BME280;64176;49.156;7.810;2023-02-01T07:09:01;99822.97;;;4.34;89.92
75594;BME280;64176;49.156;7.810;2023-02-01T07:11:45;99821.41;;;4.38;89.07
75594;BME280;64176;49.156;7.810;2023-02-01T07:14:32;99819.66;;;4.37;88.93
75594;BME280;64176;49.156;7.810;2023-02-01T07:17:16;99828.91;;;4.33;89.26
75594;BME280;64176;49.156;7.810;2023-02-01T07:19:59;99828.91;;;4.33;89.47
75594;BME280;64176;49.156;7.810;2023-02-01T07:22:45;99833.41;;;4.39;89.02
75594;BME280;64176;49.156;7.810;2023-02-01T07:25:29;99836.91;;;4.41;88.93
75594;BME280;64176;49.156;7.810;2023-02-01T07:28:13;99830.09;;;4.42;88.66
75594;BME280;64176;49.156;7.810;2023-02-01T07:31:12;99843.94;;;4.47;88.38
75594;BME280;64176;49.156;7.810;2023-02-01T07:33:59;99843.00;;;4.45;88.60
75594;BME280;64176;49.156;7.810;2023-02-01T07:36:46;99815.16;;;4.30;88.72
75594;BME280;64176;49.156;7.810;2023-02-01T07:39:30;99839.56;;;4.44;89.17
75594;BME280;64176;49.156;7.810;2023-02-01T07:42:18;99840.63;;;4.49;88.70
75594;BME280;64176;49.156;7.810;2023-02-01T07:45:05;99837.13;;;4.47;88.55
75594;BME280;64176;49.156;7.810;2023-02-01T07:47:51;99828.69;;;4.50;88.55
75594;BME280;64176;49.156;7.810;2023-02-01T07:50:35;99833.94;;;4.53;88.62
75594;BME280;64176;49.156;7.810;2023-02-01T07:53:21;99843.31;;;4.52;88.40
75594;BME280;64176;49.156;7.810;2023-02-01T07:56:17;99831.25;;;4.50;87.93
75594;BME280;64176;49.156;7.810;2023-02-01T07:59:02;99840.78;;;4.54;88.33
75594;BME280;64176;49.156;7.810;2023-02-01T08:01:46;99835.63;;;4.52;88.22
75594;BME280;64176;49.156;7.810;2023-02-01T08:04:30;99819.91;;;4.43;88.30
75594;BME280;64176;49.156;7.810;2023-02-01T08:07:15;99843.25;;;4.51;88.75
75594;BME280;64176;49.156;7.810;2023-02-01T08:09:59;99854.59;;;4.57;88.43
75594;BME280;64176;49.156;7.810;2023-02-01T08:12:43;99840.03;;;4.56;87.71
75594;BME280;64176;49.156;7.810;2023-02-01T08:15:31;99850.59;;;4.64;87.53
75594;BME280;64176;49.156;7.810;2023-02-01T08:18:15;99851.50;;;4.66;86.87
75594;BME280;64176;49.156;7.810;2023-02-01T08:21:06;99857.44;;;4.65;87.67
75594;BME280;64176;49.156;7.810;2023-02-01T08:23:51;99847.97;;;4.62;87.16
75594;BME280;64176;49.156;7.810;2023-02-01T08:26:38;99866.91;;;4.67;87.12
75594;BME280;64176;49.156;7.810;2023-02-01T08:29:22;99877.16;;;4.67;86.56
75594;BME280;64176;49.156;7.810;2023-02-01T08:32:06;99881.41;;;4.67;86.10
75594;BME280;64176;49.156;7.810;2023-02-01T08:34:50;99882.53;;;4.73;85.77
75594;BME280;64176;49.156;7.810;2023-02-01T08:37:34;99877.34;;;4.72;86.33
75594;BME280;64176;49.156;7.810;2023-02-01T08:40:18;99889.44;;;4.76;86.14
75594;BME280;64176;49.156;7.810;2023-02-01T08:43:05;99889.50;;;4.78;85.84
75594;BME280;64176;49.156;7.810;2023-02-01T08:45:50;99887.88;;;4.80;85.62
75594;BME280;64176;49.156;7.810;2023-02-01T08:48:37;99890.50;;;4.81;84.55
75594;BME280;64176;49.156;7.810;2023-02-01T08:51:22;99897.59;;;4.88;85.09
75594;BME280;64176;49.156;7.810;2023-02-01T08:54:07;99876.34;;;4.91;85.28
75594;BME280;64176;49.156;7.810;2023-02-01T08:56:51;99877.50;;;4.99;84.72
75594;BME280;64176;49.156;7.810;2023-02-01T08:59:35;99883.56;;;5.01;84.75
75594;BME280;64176;49.156;7.810;2023-02-01T09:02:21;99884.56;;;5.04;83.46
75594;BME280;64176;49.156;7.810;2023-02-01T09:05:05;99885.38;;;5.03;84.84
75594;BME280;64176;49.156;7.810;2023-02-01T09:07:49;99877.56;;;5.00;83.57
75594;BME280;64176;49.156;7.810;2023-02-01T09:10:34;99870.69;;;4.99;84.51
75594;BME280;64176;49.156;7.810;2023-02-01T09:13:22;99871.91;;;5.09;83.84
75594;BME280;64176;49.156;7.810;2023-02-01T09:16:06;99867.72;;;5.11;83.01
75594;BME280;64176;49.156;7.810;2023-02-01T09:18:50;99876.09;;;5.29;82.94
75594;BME280;64176;49.156;7.810;2023-02-01T09:21:34;99863.44;;;5.34;82.66
75594;BME280;64176;49.156;7.810;2023-02-01T09:24:23;99871.13;;;5.34;82.44
75594;BME280;64176;49.156;7.810;2023-02-01T09:27:07;99870.34;;;5.36;81.27
75594;BME280;64176;49.156;7.810;2023-02-01T09:29:53;99874.50;;;5.33;81.09
75594;BME280;64176;49.156;7.810;2023-02-01T09:32:37;99874.34;;;5.28;80.91
75594;BME280;64176;49.156;7.810;2023-02-01T09:35:21;99889.13;;;5.35;81.27
75594;BME280;64176;49.156;7.810;2023-02-01T09:38:05;99889.88;;;5.33;81.83
75594;BME280;64176;49.156;7.810;2023-02-01T09:40:52;99900.94;;;5.32;81.20
75594;BME280;64176;49.156;7.810;2023-02-01T09:43:59;99895.13;;;5.36;81.77
75594;BME280;64176;49.156;7.810;2023-02-01T09:46:45;99906.44;;;5.42;81.81
75594;BME280;64176;49.156;7.810;2023-02-01T09:49:32;99923.56;;;5.43;81.26
75594;BME280;64176;49.156;7.810;2023-02-01T09:52:19;99914.94;;;5.40;81.32
75594;BME280;64176;49.156;7.810;2023-02-01T09:55:24;99924.44;;;5.44;80.79
75594;BME280;64176;49.156;7.810;2023-02-01T10:01:26;99942.72;;;5.53;79.93
75594;BME280;64176;49.156;7.810;2023-02-01T10:04:13;99945.34;;;5.55;79.74
75594;BME280;64176;49.156;7.810;2023-02-01T10:07:16;99950.47;;;5.55;79.93
75594;BME280;64176;49.156;7.810;2023-02-01T10:10:34;99940.22;;;5.55;79.83
75594;BME280;64176;49.156;7.810;2023-02-01T10:13:35;99949.72;;;5.57;80.12
75594;BME280;64176;49.156;7.810;2023-02-01T10:16:24;99945.53;;;5.59;79.49
75594;BME280;64176;49.156;7.810;2023-02-01T10:22:41;99941.00;;;5.52;78.82
75594;BME280;64176;49.156;7.810;2023-02-01T10:25:35;99942.91;;;5.58;78.90
75594;BME280;64176;49.156;7.810;2023-02-01T10:28:21;99932.38;;;5.50;77.91
75594;BME280;64176;49.156;7.810;2023-02-01T10:31:07;99941.81;;;5.51;78.61
75594;BME280;64176;49.156;7.810;2023-02-01T10:33:56;99948.69;;;5.52;79.01
75594;BME280;64176;49.156;7.810;2023-02-01T10:37:18;99955.66;;;5.56;79.50
75594;BME280;64176;49.156;7.810;2023-02-01T10:43:01;99969.09;;;5.49;77.93
75594;BME280;64176;49.156;7.810;2023-02-01T10:45:46;99961.22;;;5.44;77.45
75594;BME280;64176;49.156;7.810;2023-02-01T10:48:31;99961.22;;;5.44;78.30
75594;BME280;64176;49.156;7.810;2023-02-01T10:51:29;99947.59;;;5.45;77.70
75594;BME280;64176;49.156;7.810;2023-02-01T10:54:32;99948.50;;;5.47;78.29
75594;BME280;64176;49.156;7.810;2023-02-01T10:57:25;99932.19;;;5.45;78.29
75594;BME280;64176;49.156;7.810;2023-02-01T11:00:19;99939.56;;;5.36;77.36
75594;BME280;64176;49.156;7.810;2023-02-01T11:03:21;99932.13;;;5.44;77.84
75594;BME280;64176;49.156;7.810;2023-02-01T11:06:25;99925.25;;;5.43;78.34
75594;BME280;64176;49.156;7.810;2023-02-01T11:11:56;99917.56;;;5.43;77.64
75594;BME280;64176;49.156;7.810;2023-02-01T11:14:41;99912.38;;;5.41;77.38
75594;BME280;64176;49.156;7.810;2023-02-01T11:17:34;99902.00;;;5.37;76.94
75594;BME280;64176;49.156;7.810;2023-02-01T11:20:40;99905.50;;;5.39;78.00
75594;BME280;64176;49.156;7.810;2023-02-01T11:23:27;99896.63;;;5.31;77.84
75594;BME280;64176;49.156;7.810;2023-02-01T11:26:13;99892.56;;;5.36;77.85
75594;BME280;64176;49.156;7.810;2023-02-01T11:29:02;99885.69;;;5.35;77.29
75594;BME280;64176;49.156;7.810;2023-02-01T11:31:47;99879.84;;;5.39;77.48
75594;BME280;64176;49.156;7.810;2023-02-01T11:34:45;99869.22;;;5.28;77.89
75594;BME280;64176;49.156;7.810;2023-02-01T11:46:08;99889.06;;;5.34;77.07
75594;BME280;64176;49.156;7.810;2023-02-01T12:07:05;99890.00;;;5.36;75.52
75594;BME280;64176;49.156;7.810;2023-02-01T12:29:09;99864.75;;;5.46;75.76
75594;BME280;64176;49.156;7.810;2023-02-01T12:32:00;99862.44;;;5.54;75.58
75594;BME280;64176;49.156;7.810;2023-02-01T12:34:55;99871.88;;;5.55;75.72
75594;BME280;64176;49.156;7.810;2023-02-01T12:46:57;99861.84;;;5.61;74.91
75594;BME280;64176;49.156;7.810;2023-02-01T12:52:51;99850.72;;;5.61;73.92
75594;BME280;64176;49.156;7.810;2023-02-01T12:55:41;99850.81;;;5.64;74.44
75594;BME280;64176;49.156;7.810;2023-02-01T12:58:32;99838.66;;;5.58;74.36
75594;BME280;64176;49.156;7.810;2023-02-01T13:01:46;99830.91;;;5.57;73.20
75594;BME280;64176;49.156;7.810;2023-02-01T13:05:12;99829.34;;;5.60;73.23
75594;BME280;64176;49.156;7.810;2023-02-01T13:08:05;99829.22;;;5.57;73.62
75594;BME280;64176;49.156;7.810;2023-02-01T13:11:03;99817.97;;;5.54;73.87
75594;BME280;64176;49.156;7.810;2023-02-01T13:13:56;99798.56;;;5.60;73.53
75594;BME280;64176;49.156;7.810;2023-02-01T13:16:49;99803.81;;;5.63;73.86
75594;BME280;64176;49.156;7.810;2023-02-01T13:19:52;99802.00;;;5.61;73.07
75594;BME280;64176;49.156;7.810;2023-02-01T13:22:41;99790.06;;;5.61;72.84
75594;BME280;64176;49.156;7.810;2023-02-01T13:25:41;99774.63;;;5.60;73.00
75594;BME280;64176;49.156;7.810;2023-02-01T13:28:34;99776.44;;;5.62;73.34
75594;BME280;64176;49.156;7.810;2023-02-01T13:31:31;99759.28;;;5.61;73.59
75594;BME280;64176;49.156;7.810;2023-02-01T13:41:06;99787.84;;;5.72;72.87
75594;BME280;64176;49.156;7.810;2023-02-01T13:44:05;99775.28;;;5.79;73.48
75594;BME280;64176;49.156;7.810;2023-02-01T13:46:53;99769.38;;;5.82;73.34
75594;BME280;64176;49.156;7.810;2023-02-01T13:49:39;99776.97;;;5.79;73.93
75594;BME280;64176;49.156;7.810;2023-02-01T13:52:41;99782.25;;;5.83;73.28
75594;BME280;64176;49.156;7.810;2023-02-01T13:55:32;99793.22;;;5.79;73.26
75594;BME280;64176;49.156;7.810;2023-02-01T13:58:18;99805.28;;;5.82;73.26
75594;BME280;64176;49.156;7.810;2023-02-01T14:04:47;99788.41;;;5.89;73.22
75594;BME280;64176;49.156;7.810;2023-02-01T14:07:34;99783.59;;;5.98;72.82
75594;BME280;64176;49.156;7.810;2023-02-01T14:13:36;99790.38;;;6.22;71.80
75594;BME280;64176;49.156;7.810;2023-02-01T14:16:21;99790.59;;;6.29;71.38
75594;BME280;64176;49.156;7.810;2023-02-01T14:25:19;99796.75;;;6.35;70.97
75594;BME280;64176;49.156;7.810;2023-02-01T14:28:23;99795.22;;;6.40;71.40
75594;BME280;64176;49.156;7.810;2023-02-01T14:31:19;99790.59;;;6.29;70.85
75594;BME280;64176;49.156;7.810;2023-02-01T14:37:05;99783.78;;;6.31;70.56
75594;BME280;64176;49.156;7.810;2023-02-01T14:40:00;99796.91;;;6.40;71.02
75594;BME280;64176;49.156;7.810;2023-02-01T14:42:47;99793.59;;;6.44;70.98
75594;BME280;64176;49.156;7.810;2023-02-01T14:50:59;99793.28;;;6.62;71.38
75594;BME280;64176;49.156;7.810;2023-02-01T14:53:46;99801.19;;;6.39;71.28
75594;BME280;64176;49.156;7.810;2023-02-01T14:56:31;99801.72;;;6.29;71.54
75594;BME280;64176;49.156;7.810;2023-02-01T14:59:16;99796.66;;;6.32;71.49
75594;BME280;64176;49.156;7.810;2023-02-01T15:02:01;99788.09;;;6.32;71.59
75594;BME280;64176;49.156;7.810;2023-02-01T15:04:56;99789.50;;;6.22;71.30
75594;BME280;64176;49.156;7.810;2023-02-01T15:07:43;99796.31;;;6.21;71.70
75594;BME280;64176;49.156;7.810;2023-02-01T15:10:27;99791.06;;;6.17;72.51
75594;BME280;64176;49.156;7.810;2023-02-01T15:13:24;99799.66;;;6.19;72.26
75594;BME280;64176;49.156;7.810;2023-02-01T15:16:14;99794.56;;;6.20;71.53
75594;BME280;64176;49.156;7.810;2023-02-01T15:19:09;99804.56;;;6.11;73.04
75594;BME280;64176;49.156;7.810;2023-02-01T15:21:56;99809.63;;;6.10;73.51
75594;BME280;64176;49.156;7.810;2023-02-01T15:24:43;99812.16;;;6.08;72.54
75594;BME280;64176;49.156;7.810;2023-02-01T15:27:28;99804.09;;;5.98;73.00
75594;BME280;64176;49.156;7.810;2023-02-01T15:30:25;99805.91;;;6.00;73.31
75594;BME280;64176;49.156;7.810;2023-02-01T15:39:12;99815.19;;;5.97;73.83
75594;BME280;64176;49.156;7.810;2023-02-01T15:42:00;99822.94;;;5.98;73.69
75594;BME280;64176;49.156;7.810;2023-02-01T15:44:48;99828.88;;;5.96;74.12
75594;BME280;64176;49.156;7.810;2023-02-01T15:47:32;99820.25;;;5.94;74.12
75594;BME280;64176;49.156;7.810;2023-02-01T15:50:20;99829.47;;;5.89;74.80
75594;BME280;64176;49.156;7.810;2023-02-01T15:53:04;99825.06;;;5.86;74.35
75594;BME280;64176;49.156;7.810;2023-02-01T15:55:54;99811.94;;;5.77;74.12
75594;BME280;64176;49.156;7.810;2023-02-01T15:58:41;99806.94;;;5.80;74.65
75594;BME280;64176;49.156;7.810;2023-02-01T16:01:27;99809.66;;;5.84;74.21
75594;BME280;64176;49.156;7.810;2023-02-01T16:04:22;99812.25;;;5.86;73.76
75594;BME280;64176;49.156;7.810;2023-02-01T16:07:25;99807.91;;;5.83;74.01
75594;BME280;64176;49.156;7.810;2023-02-01T16:10:27;99819.03;;;5.84;73.99
75594;BME280;64176;49.156;7.810;2023-02-01T16:13:12;99806.06;;;5.79;74.24
75594;BME280;64176;49.156;7.810;2023-02-01T16:15:56;99814.63;;;5.80;74.35
75594;BME280;64176;49.156;7.810;2023-02-01T16:18:41;99812.00;;;5.78;74.26
75594;BME280;64176;49.156;7.810;2023-02-01T16:21:33;99827.44;;;5.80;74.35
75594;BME280;64176;49.156;7.810;2023-02-01T16:24:17;99832.41;;;5.75;74.60
75594;BME280;64176;49.156;7.810;2023-02-01T16:27:01;99822.94;;;5.73;74.18
75594;BME280;64176;49.156;7.810;2023-02-01T16:29:46;99838.50;;;5.79;74.36
75594;BME280;64176;49.156;7.810;2023-02-01T16:32:30;99841.84;;;5.76;74.06
75594;BME280;64176;49.156;7.810;2023-02-01T16:35:24;99841.78;;;5.75;74.78
75594;BME280;64176;49.156;7.810;2023-02-01T16:38:11;99835.41;;;5.64;75.13
75594;BME280;64176;49.156;7.810;2023-02-01T16:40:56;99846.78;;;5.70;74.73
75594;BME280;64176;49.156;7.810;2023-02-01T16:43:44;99848.34;;;5.67;75.12
75594;BME280;64176;49.156;7.810;2023-02-01T16:46:33;99854.16;;;5.61;75.20
75594;BME280;64176;49.156;7.810;2023-02-01T16:49:25;99855.72;;;5.58;74.98
75594;BME280;64176;49.156;7.810;2023-02-01T16:52:29;99861.78;;;5.60;75.31
75594;BME280;64176;49.156;7.810;2023-02-01T16:55:15;99854.03;;;5.58;75.03
75594;BME280;64176;49.156;7.810;2023-02-01T16:58:03;99865.94;;;5.56;75.33
75594;BME280;64176;49.156;7.810;2023-02-01T17:00:50;99867.47;;;5.51;75.81
75594;BME280;64176;49.156;7.810;2023-02-01T17:03:35;99872.59;;;5.51;75.50
75594;BME280;64176;49.156;7.810;2023-02-01T17:06:24;99864.75;;;5.46;75.95
75594;BME280;64176;49.156;7.810;2023-02-01T17:09:08;99862.94;;;5.44;75.92
75594;BME280;64176;49.156;7.810;2023-02-01T17:11:52;99867.09;;;5.40;76.02